Clarksville, Delaware
Current Conditions -  °F | °C
As of 4:53 AM on Friday 24 Oct 2014 (Local Time) from KOXB Reporting Station
Overcast Overcast  
Wind Chill: 53°   Ceiling: 4700
Heat Index: 53°   Visibility: 10mi
Dew Point: 46°   Wind: 6mph
Humidity: 77%   Direction: 280°W
Pressure: 29.86"   Gusts: NA
Location:  38.5606°N, 75.0865°W
Report Text: KOXB 240853Z AUTO 28005KT 10SM OVC047 12/08 A2986 RMK AO2 SLP113 T01170078 53007 TSNO
Loading
Personal Weather Stations






























Interactive Weather Map
Tropical Storm Tracking
New forecast layout! Learn more

10-Day Weather Forecast

Advertisements
Track Severe Weather on mobile